sensor_id;sensor_type;location;lat;lon;timestamp;temperature;humidity
34406;DHT22;20658;45.630;8.886;2022-08-19T00:02:19;19.50;93.20
34406;DHT22;20658;45.630;8.886;2022-08-19T00:04:53;19.50;93.20
34406;DHT22;20658;45.630;8.886;2022-08-19T00:07:27;19.50;93.20
34406;DHT22;20658;45.630;8.886;2022-08-19T00:10:00;19.40;93.40
34406;DHT22;20658;45.630;8.886;2022-08-19T00:12:34;19.50;93.90
34406;DHT22;20658;45.630;8.886;2022-08-19T00:15:16;19.40;93.80
34406;DHT22;20658;45.630;8.886;2022-08-19T00:17:51;19.30;93.90
34406;DHT22;20658;45.630;8.886;2022-08-19T00:20:25;19.30;94.00
34406;DHT22;20658;45.630;8.886;2022-08-19T00:23:07;19.30;94.00
34406;DHT22;20658;45.630;8.886;2022-08-19T00:25:41;19.30;94.00
34406;DHT22;20658;45.630;8.886;2022-08-19T00:28:14;19.20;93.90
34406;DHT22;20658;45.630;8.886;2022-08-19T00:30:49;19.20;94.00
34406;DHT22;20658;45.630;8.886;2022-08-19T00:33:25;19.20;94.00
34406;DHT22;20658;45.630;8.886;2022-08-19T00:35:58;19.20;94.30
34406;DHT22;20658;45.630;8.886;2022-08-19T00:38:32;19.20;94.60
34406;DHT22;20658;45.630;8.886;2022-08-19T00:41:06;19.20;94.70
34406;DHT22;20658;45.630;8.886;2022-08-19T00:43:40;19.10;95.10
34406;DHT22;20658;45.630;8.886;2022-08-19T00:46:15;19.10;95.40
34406;DHT22;20658;45.630;8.886;2022-08-19T00:48:50;19.00;95.40
34406;DHT22;20658;45.630;8.886;2022-08-19T00:51:24;19.00;95.80
34406;DHT22;20658;45.630;8.886;2022-08-19T00:54:00;19.00;95.90
34406;DHT22;20658;45.630;8.886;2022-08-19T00:56:35;19.00;96.10
34406;DHT22;20658;45.630;8.886;2022-08-19T00:59:10;19.00;96.10
34406;DHT22;20658;45.630;8.886;2022-08-19T01:01:45;19.00;96.20
34406;DHT22;20658;45.630;8.886;2022-08-19T01:04:19;19.00;96.30
34406;DHT22;20658;45.630;8.886;2022-08-19T01:06:52;18.90;96.40
34406;DHT22;20658;45.630;8.886;2022-08-19T01:09:26;18.90;96.50
34406;DHT22;20658;45.630;8.886;2022-08-19T01:12:00;18.90;96.50
34406;DHT22;20658;45.630;8.886;2022-08-19T01:14:35;18.90;96.60
34406;DHT22;20658;45.630;8.886;2022-08-19T01:17:11;18.90;96.70
34406;DHT22;20658;45.630;8.886;2022-08-19T01:19:46;18.90;96.80
34406;DHT22;20658;45.630;8.886;2022-08-19T01:22:25;18.90;96.60
34406;DHT22;20658;45.630;8.886;2022-08-19T01:25:01;18.90;96.80
34406;DHT22;20658;45.630;8.886;2022-08-19T01:27:39;18.80;96.60
34406;DHT22;20658;45.630;8.886;2022-08-19T01:30:17;18.90;96.70
34406;DHT22;20658;45.630;8.886;2022-08-19T01:32:54;18.90;96.40
34406;DHT22;20658;45.630;8.886;2022-08-19T01:35:30;18.90;96.40
34406;DHT22;20658;45.630;8.886;2022-08-19T01:38:08;18.90;96.00
34406;DHT22;20658;45.630;8.886;2022-08-19T01:40:51;18.90;95.90
34406;DHT22;20658;45.630;8.886;2022-08-19T01:43:24;18.90;95.80
34406;DHT22;20658;45.630;8.886;2022-08-19T01:45:58;18.90;95.80
34406;DHT22;20658;45.630;8.886;2022-08-19T01:48:36;18.90;96.00
34406;DHT22;20658;45.630;8.886;2022-08-19T01:51:12;18.80;95.90
34406;DHT22;20658;45.630;8.886;2022-08-19T01:53:49;18.80;96.00
34406;DHT22;20658;45.630;8.886;2022-08-19T01:56:24;18.80;95.90
34406;DHT22;20658;45.630;8.886;2022-08-19T01:59:01;18.80;96.10
34406;DHT22;20658;45.630;8.886;2022-08-19T02:01:36;18.80;96.20
34406;DHT22;20658;45.630;8.886;2022-08-19T02:04:09;18.70;96.40
34406;DHT22;20658;45.630;8.886;2022-08-19T02:06:43;18.70;96.40
34406;DHT22;20658;45.630;8.886;2022-08-19T02:09:18;18.70;96.60
34406;DHT22;20658;45.630;8.886;2022-08-19T02:11:51;18.70;96.70
34406;DHT22;20658;45.630;8.886;2022-08-19T02:14:25;18.60;96.60
34406;DHT22;20658;45.630;8.886;2022-08-19T02:16:58;18.60;96.80
34406;DHT22;20658;45.630;8.886;2022-08-19T02:19:32;18.60;97.00
34406;DHT22;20658;45.630;8.886;2022-08-19T02:22:06;18.60;97.30
34406;DHT22;20658;45.630;8.886;2022-08-19T02:24:41;18.50;97.50
34406;DHT22;20658;45.630;8.886;2022-08-19T02:27:15;18.50;97.60
34406;DHT22;20658;45.630;8.886;2022-08-19T02:29:50;18.50;97.70
34406;DHT22;20658;45.630;8.886;2022-08-19T02:32:23;18.50;97.50
34406;DHT22;20658;45.630;8.886;2022-08-19T02:34:57;18.40;97.80
34406;DHT22;20658;45.630;8.886;2022-08-19T02:37:30;18.40;97.70
34406;DHT22;20658;45.630;8.886;2022-08-19T02:40:22;18.40;97.80
34406;DHT22;20658;45.630;8.886;2022-08-19T02:42:56;18.40;97.60
34406;DHT22;20658;45.630;8.886;2022-08-19T02:45:32;18.40;98.10
34406;DHT22;20658;45.630;8.886;2022-08-19T02:48:06;18.40;98.40
34406;DHT22;20658;45.630;8.886;2022-08-19T02:50:39;18.30;98.60
34406;DHT22;20658;45.630;8.886;2022-08-19T02:53:13;18.30;98.60
34406;DHT22;20658;45.630;8.886;2022-08-19T02:55:49;18.30;98.80
34406;DHT22;20658;45.630;8.886;2022-08-19T02:58:23;18.30;99.00
34406;DHT22;20658;45.630;8.886;2022-08-19T03:00:58;18.20;98.90
34406;DHT22;20658;45.630;8.886;2022-08-19T03:03:32;18.20;99.20
34406;DHT22;20658;45.630;8.886;2022-08-19T03:06:08;18.10;99.30
34406;DHT22;20658;45.630;8.886;2022-08-19T03:08:46;18.10;99.20
34406;DHT22;20658;45.630;8.886;2022-08-19T03:11:23;18.10;99.10
34406;DHT22;20658;45.630;8.886;2022-08-19T03:13:57;18.10;99.20
34406;DHT22;20658;45.630;8.886;2022-08-19T03:16:41;18.10;98.90
34406;DHT22;20658;45.630;8.886;2022-08-19T03:19:17;18.10;98.80
34406;DHT22;20658;45.630;8.886;2022-08-19T03:21:53;18.10;99.00
34406;DHT22;20658;45.630;8.886;2022-08-19T03:24:27;18.10;99.00
34406;DHT22;20658;45.630;8.886;2022-08-19T03:27:01;18.10;99.50
34406;DHT22;20658;45.630;8.886;2022-08-19T03:29:37;18.00;99.50
34406;DHT22;20658;45.630;8.886;2022-08-19T03:32:11;18.00;99.40
34406;DHT22;20658;45.630;8.886;2022-08-19T03:34:44;18.00;99.30
34406;DHT22;20658;45.630;8.886;2022-08-19T03:37:18;18.00;99.10
34406;DHT22;20658;45.630;8.886;2022-08-19T03:39:51;18.10;98.80
34406;DHT22;20658;45.630;8.886;2022-08-19T03:42:26;18.10;98.70
34406;DHT22;20658;45.630;8.886;2022-08-19T03:45:00;18.10;98.60
34406;DHT22;20658;45.630;8.886;2022-08-19T03:47:33;18.20;98.50
34406;DHT22;20658;45.630;8.886;2022-08-19T03:50:07;18.20;98.30
34406;DHT22;20658;45.630;8.886;2022-08-19T03:52:41;18.20;98.10
34406;DHT22;20658;45.630;8.886;2022-08-19T03:55:15;18.20;98.30
34406;DHT22;20658;45.630;8.886;2022-08-19T03:57:50;18.20;98.20
34406;DHT22;20658;45.630;8.886;2022-08-19T04:00:23;18.20;98.20
34406;DHT22;20658;45.630;8.886;2022-08-19T04:02:56;18.20;98.30
34406;DHT22;20658;45.630;8.886;2022-08-19T04:05:30;18.20;98.50
34406;DHT22;20658;45.630;8.886;2022-08-19T04:08:04;18.20;98.50
34406;DHT22;20658;45.630;8.886;2022-08-19T04:10:38;18.10;98.30
34406;DHT22;20658;45.630;8.886;2022-08-19T04:13:13;18.10;98.20
34406;DHT22;20658;45.630;8.886;2022-08-19T04:15:47;18.10;98.30
34406;DHT22;20658;45.630;8.886;2022-08-19T04:18:21;18.10;98.50
34406;DHT22;20658;45.630;8.886;2022-08-19T04:20:55;18.10;98.50
34406;DHT22;20658;45.630;8.886;2022-08-19T04:23:29;18.20;98.50
34406;DHT22;20658;45.630;8.886;2022-08-19T04:26:03;18.10;98.50
34406;DHT22;20658;45.630;8.886;2022-08-19T04:28:38;18.10;98.80
34406;DHT22;20658;45.630;8.886;2022-08-19T04:31:14;18.10;99.00
34406;DHT22;20658;45.630;8.886;2022-08-19T04:33:48;18.10;99.10
34406;DHT22;20658;45.630;8.886;2022-08-19T04:36:25;18.10;98.90
34406;DHT22;20658;45.630;8.886;2022-08-19T04:39:03;18.00;98.80
34406;DHT22;20658;45.630;8.886;2022-08-19T04:41:37;18.10;99.30
34406;DHT22;20658;45.630;8.886;2022-08-19T04:44:30;18.10;99.40
34406;DHT22;20658;45.630;8.886;2022-08-19T04:47:04;18.10;99.60
34406;DHT22;20658;45.630;8.886;2022-08-19T04:49:38;18.10;99.50
34406;DHT22;20658;45.630;8.886;2022-08-19T04:52:11;18.10;99.60
34406;DHT22;20658;45.630;8.886;2022-08-19T04:54:45;18.10;99.40
34406;DHT22;20658;45.630;8.886;2022-08-19T04:57:19;18.10;99.30
34406;DHT22;20658;45.630;8.886;2022-08-19T04:59:55;18.10;99.20
34406;DHT22;20658;45.630;8.886;2022-08-19T05:02:29;18.10;99.10
34406;DHT22;20658;45.630;8.886;2022-08-19T05:05:03;18.10;99.00
34406;DHT22;20658;45.630;8.886;2022-08-19T05:07:38;18.10;98.80
34406;DHT22;20658;45.630;8.886;2022-08-19T05:10:13;18.20;98.70
34406;DHT22;20658;45.630;8.886;2022-08-19T05:12:46;18.20;98.70
34406;DHT22;20658;45.630;8.886;2022-08-19T05:15:21;18.20;98.50
34406;DHT22;20658;45.630;8.886;2022-08-19T05:17:54;18.30;98.50
34406;DHT22;20658;45.630;8.886;2022-08-19T05:20:45;18.30;98.20
34406;DHT22;20658;45.630;8.886;2022-08-19T05:23:36;18.40;98.40
34406;DHT22;20658;45.630;8.886;2022-08-19T05:26:09;18.40;98.60
34406;DHT22;20658;45.630;8.886;2022-08-19T05:28:43;18.40;98.20
34406;DHT22;20658;45.630;8.886;2022-08-19T05:31:18;18.50;98.00
34406;DHT22;20658;45.630;8.886;2022-08-19T05:33:51;18.50;97.80
34406;DHT22;20658;45.630;8.886;2022-08-19T05:36:25;18.50;97.60
34406;DHT22;20658;45.630;8.886;2022-08-19T05:38:59;18.60;97.50
34406;DHT22;20658;45.630;8.886;2022-08-19T05:41:28;18.60;97.60
34406;DHT22;20658;45.630;8.886;2022-08-19T05:44:04;18.60;97.60
34406;DHT22;20658;45.630;8.886;2022-08-19T05:46:37;18.60;97.30
34406;DHT22;20658;45.630;8.886;2022-08-19T05:49:12;18.60;97.20
34406;DHT22;20658;45.630;8.886;2022-08-19T05:51:46;18.70;97.10
34406;DHT22;20658;45.630;8.886;2022-08-19T05:54:19;18.80;96.90
34406;DHT22;20658;45.630;8.886;2022-08-19T05:56:54;18.80;96.60
34406;DHT22;20658;45.630;8.886;2022-08-19T05:59:28;18.80;96.50
34406;DHT22;20658;45.630;8.886;2022-08-19T06:02:04;18.80;96.50
34406;DHT22;20658;45.630;8.886;2022-08-19T06:04:38;18.80;96.60
34406;DHT22;20658;45.630;8.886;2022-08-19T06:07:14;18.90;96.80
34406;DHT22;20658;45.630;8.886;2022-08-19T06:09:48;18.90;96.60
34406;DHT22;20658;45.630;8.886;2022-08-19T06:12:22;19.00;96.50
34406;DHT22;20658;45.630;8.886;2022-08-19T06:15:05;18.90;96.00
34406;DHT22;20658;45.630;8.886;2022-08-19T06:17:42;19.00;96.10
34406;DHT22;20658;45.630;8.886;2022-08-19T06:20:17;19.00;96.20
34406;DHT22;20658;45.630;8.886;2022-08-19T06:22:50;19.00;96.10
34406;DHT22;20658;45.630;8.886;2022-08-19T06:25:24;19.10;96.10
34406;DHT22;20658;45.630;8.886;2022-08-19T06:27:57;19.10;96.00
34406;DHT22;20658;45.630;8.886;2022-08-19T06:30:31;19.20;96.00
34406;DHT22;20658;45.630;8.886;2022-08-19T06:33:06;19.20;95.70
34406;DHT22;20658;45.630;8.886;2022-08-19T06:35:40;19.30;95.60
34406;DHT22;20658;45.630;8.886;2022-08-19T06:38:13;19.40;95.60
34406;DHT22;20658;45.630;8.886;2022-08-19T06:40:47;19.50;95.50
34406;DHT22;20658;45.630;8.886;2022-08-19T06:43:20;19.50;95.40
34406;DHT22;20658;45.630;8.886;2022-08-19T06:45:54;19.70;95.10
34406;DHT22;20658;45.630;8.886;2022-08-19T06:48:29;19.70;94.80
34406;DHT22;20658;45.630;8.886;2022-08-19T06:51:03;19.90;94.60
34406;DHT22;20658;45.630;8.886;2022-08-19T06:53:37;20.00;94.10
34406;DHT22;20658;45.630;8.886;2022-08-19T06:56:12;20.10;93.70
34406;DHT22;20658;45.630;8.886;2022-08-19T06:58:46;20.20;93.10
34406;DHT22;20658;45.630;8.886;2022-08-19T07:01:24;20.30;92.90
34406;DHT22;20658;45.630;8.886;2022-08-19T07:03:59;20.50;92.00
34406;DHT22;20658;45.630;8.886;2022-08-19T07:06:34;20.60;91.80
34406;DHT22;20658;45.630;8.886;2022-08-19T07:09:12;20.70;91.40
34406;DHT22;20658;45.630;8.886;2022-08-19T07:11:48;20.80;91.10
34406;DHT22;20658;45.630;8.886;2022-08-19T07:14:26;20.90;91.10
34406;DHT22;20658;45.630;8.886;2022-08-19T07:17:00;21.30;89.50
34406;DHT22;20658;45.630;8.886;2022-08-19T07:19:35;21.60;88.90
34406;DHT22;20658;45.630;8.886;2022-08-19T07:22:10;21.50;87.80
34406;DHT22;20658;45.630;8.886;2022-08-19T07:24:38;21.60;87.90
34406;DHT22;20658;45.630;8.886;2022-08-19T07:27:13;21.90;87.30
34406;DHT22;20658;45.630;8.886;2022-08-19T07:29:47;21.80;87.20
34406;DHT22;20658;45.630;8.886;2022-08-19T07:32:21;21.80;87.20
34406;DHT22;20658;45.630;8.886;2022-08-19T07:34:56;21.80;87.50
34406;DHT22;20658;45.630;8.886;2022-08-19T07:37:29;21.70;87.80
34406;DHT22;20658;45.630;8.886;2022-08-19T07:40:04;21.70;88.50
34406;DHT22;20658;45.630;8.886;2022-08-19T07:42:37;21.60;88.20
34406;DHT22;20658;45.630;8.886;2022-08-19T07:45:11;21.70;88.30
34406;DHT22;20658;45.630;8.886;2022-08-19T07:47:44;21.90;88.00
34406;DHT22;20658;45.630;8.886;2022-08-19T07:50:21;21.90;88.00
34406;DHT22;20658;45.630;8.886;2022-08-19T07:52:54;22.10;86.60
34406;DHT22;20658;45.630;8.886;2022-08-19T07:55:28;22.40;84.60
34406;DHT22;20658;45.630;8.886;2022-08-19T07:58:02;22.90;84.50
34406;DHT22;20658;45.630;8.886;2022-08-19T08:00:36;23.30;81.30
34406;DHT22;20658;45.630;8.886;2022-08-19T08:03:10;23.40;80.90
34406;DHT22;20658;45.630;8.886;2022-08-19T08:05:41;23.70;81.10
34406;DHT22;20658;45.630;8.886;2022-08-19T08:08:32;24.20;79.10
34406;DHT22;20658;45.630;8.886;2022-08-19T08:11:23;24.40;76.00
34406;DHT22;20658;45.630;8.886;2022-08-19T08:13:56;24.80;75.20
34406;DHT22;20658;45.630;8.886;2022-08-19T08:16:33;25.00;72.70
34406;DHT22;20658;45.630;8.886;2022-08-19T08:19:08;25.00;72.30
34406;DHT22;20658;45.630;8.886;2022-08-19T08:21:38;24.90;71.00
34406;DHT22;20658;45.630;8.886;2022-08-19T08:24:07;24.60;72.40
34406;DHT22;20658;45.630;8.886;2022-08-19T08:26:40;24.60;73.10
34406;DHT22;20658;45.630;8.886;2022-08-19T08:29:15;24.90;72.60
34406;DHT22;20658;45.630;8.886;2022-08-19T08:31:49;25.00;72.20
34406;DHT22;20658;45.630;8.886;2022-08-19T08:34:22;25.30;71.10
34406;DHT22;20658;45.630;8.886;2022-08-19T08:36:57;25.40;70.10
34406;DHT22;20658;45.630;8.886;2022-08-19T08:39:30;25.50;69.90
34406;DHT22;20658;45.630;8.886;2022-08-19T08:42:08;25.80;69.00
34406;DHT22;20658;45.630;8.886;2022-08-19T08:44:49;25.90;67.70
34406;DHT22;20658;45.630;8.886;2022-08-19T08:47:31;25.90;65.00
34406;DHT22;20658;45.630;8.886;2022-08-19T08:50:13;25.90;63.00
34406;DHT22;20658;45.630;8.886;2022-08-19T08:52:52;25.90;63.00
34406;DHT22;20658;45.630;8.886;2022-08-19T08:55:29;25.90;63.00
34406;DHT22;20658;45.630;8.886;2022-08-19T08:58:06;26.10;63.50
34406;DHT22;20658;45.630;8.886;2022-08-19T09:00:47;26.20;62.80
34406;DHT22;20658;45.630;8.886;2022-08-19T09:03:24;26.30;63.40
34406;DHT22;20658;45.630;8.886;2022-08-19T09:06:02;26.40;63.30
34406;DHT22;20658;45.630;8.886;2022-08-19T09:08:46;26.50;62.30
34406;DHT22;20658;45.630;8.886;2022-08-19T09:11:44;26.60;62.40
34406;DHT22;20658;45.630;8.886;2022-08-19T09:14:36;26.80;60.90
34406;DHT22;20658;45.630;8.886;2022-08-19T09:17:13;27.30;59.90
34406;DHT22;20658;45.630;8.886;2022-08-19T09:19:49;27.30;59.30
34406;DHT22;20658;45.630;8.886;2022-08-19T09:22:24;27.70;57.70
34406;DHT22;20658;45.630;8.886;2022-08-19T09:25:00;28.20;57.10
34406;DHT22;20658;45.630;8.886;2022-08-19T09:27:35;28.50;54.90
34406;DHT22;20658;45.630;8.886;2022-08-19T09:30:15;28.60;53.10
34406;DHT22;20658;45.630;8.886;2022-08-19T09:32:50;28.00;54.80
34406;DHT22;20658;45.630;8.886;2022-08-19T09:35:27;27.80;55.00
34406;DHT22;20658;45.630;8.886;2022-08-19T09:38:01;27.80;55.90
34406;DHT22;20658;45.630;8.886;2022-08-19T09:40:36;27.80;57.10
34406;DHT22;20658;45.630;8.886;2022-08-19T09:43:10;27.70;56.50
34406;DHT22;20658;45.630;8.886;2022-08-19T09:45:44;27.80;55.00
34406;DHT22;20658;45.630;8.886;2022-08-19T09:48:17;27.70;55.50
34406;DHT22;20658;45.630;8.886;2022-08-19T09:50:53;27.90;55.10
34406;DHT22;20658;45.630;8.886;2022-08-19T09:53:26;28.00;54.50
34406;DHT22;20658;45.630;8.886;2022-08-19T09:56:02;27.90;53.20
34406;DHT22;20658;45.630;8.886;2022-08-19T09:58:37;27.80;54.00
34406;DHT22;20658;45.630;8.886;2022-08-19T10:01:16;27.60;55.00
34406;DHT22;20658;45.630;8.886;2022-08-19T10:03:53;27.60;54.90
34406;DHT22;20658;45.630;8.886;2022-08-19T10:06:29;27.50;55.60
34406;DHT22;20658;45.630;8.886;2022-08-19T10:08:59;28.00;54.90
34406;DHT22;20658;45.630;8.886;2022-08-19T10:11:39;28.00;54.40
34406;DHT22;20658;45.630;8.886;2022-08-19T10:14:12;28.00;54.70
34406;DHT22;20658;45.630;8.886;2022-08-19T10:16:46;28.00;54.50
34406;DHT22;20658;45.630;8.886;2022-08-19T10:19:21;27.70;53.70
34406;DHT22;20658;45.630;8.886;2022-08-19T10:21:54;27.90;54.00
34406;DHT22;20658;45.630;8.886;2022-08-19T10:24:28;28.00;54.50
34406;DHT22;20658;45.630;8.886;2022-08-19T10:27:04;28.30;53.80
34406;DHT22;20658;45.630;8.886;2022-08-19T10:29:37;28.30;52.80
34406;DHT22;20658;45.630;8.886;2022-08-19T10:32:11;28.80;52.70
34406;DHT22;20658;45.630;8.886;2022-08-19T10:34:44;29.20;52.20
34406;DHT22;20658;45.630;8.886;2022-08-19T10:37:18;29.60;51.30
34406;DHT22;20658;45.630;8.886;2022-08-19T10:39:51;29.90;48.80
34406;DHT22;20658;45.630;8.886;2022-08-19T10:42:26;30.30;49.20
34406;DHT22;20658;45.630;8.886;2022-08-19T10:45:00;30.30;48.30
34406;DHT22;20658;45.630;8.886;2022-08-19T10:47:33;30.00;48.50
34406;DHT22;20658;45.630;8.886;2022-08-19T10:50:07;29.80;48.30
34406;DHT22;20658;45.630;8.886;2022-08-19T10:53:03;29.90;47.80
34406;DHT22;20658;45.630;8.886;2022-08-19T10:55:38;30.00;48.10
34406;DHT22;20658;45.630;8.886;2022-08-19T10:58:44;30.40;47.50
34406;DHT22;20658;45.630;8.886;2022-08-19T11:01:17;30.30;47.10
34406;DHT22;20658;45.630;8.886;2022-08-19T11:03:51;30.20;48.20
34406;DHT22;20658;45.630;8.886;2022-08-19T11:06:25;29.70;48.10
34406;DHT22;20658;45.630;8.886;2022-08-19T11:08:58;29.30;49.10
34406;DHT22;20658;45.630;8.886;2022-08-19T11:11:32;29.00;50.10
34406;DHT22;20658;45.630;8.886;2022-08-19T11:14:15;28.60;50.10
34406;DHT22;20658;45.630;8.886;2022-08-19T11:16:50;28.70;50.40
34406;DHT22;20658;45.630;8.886;2022-08-19T11:19:25;28.70;50.00
34406;DHT22;20658;45.630;8.886;2022-08-19T11:21:59;28.80;50.00
34406;DHT22;20658;45.630;8.886;2022-08-19T11:24:34;28.20;51.00
34406;DHT22;20658;45.630;8.886;2022-08-19T11:27:09;28.00;51.60
34406;DHT22;20658;45.630;8.886;2022-08-19T11:29:44;28.60;50.80
34406;DHT22;20658;45.630;8.886;2022-08-19T11:32:18;29.00;49.50
34406;DHT22;20658;45.630;8.886;2022-08-19T11:34:51;29.10;49.50
34406;DHT22;20658;45.630;8.886;2022-08-19T11:37:26;28.90;48.30
34406;DHT22;20658;45.630;8.886;2022-08-19T11:39:59;28.80;48.90
34406;DHT22;20658;45.630;8.886;2022-08-19T11:42:33;29.00;49.00
34406;DHT22;20658;45.630;8.886;2022-08-19T11:45:28;29.00;48.30
34406;DHT22;20658;45.630;8.886;2022-08-19T11:48:02;29.20;48.20
34406;DHT22;20658;45.630;8.886;2022-08-19T11:50:35;29.10;47.70
34406;DHT22;20658;45.630;8.886;2022-08-19T11:53:14;28.80;48.90
34406;DHT22;20658;45.630;8.886;2022-08-19T11:55:53;28.10;50.80
34406;DHT22;20658;45.630;8.886;2022-08-19T11:58:28;27.70;51.40
34406;DHT22;20658;45.630;8.886;2022-08-19T12:01:06;28.00;50.30
34406;DHT22;20658;45.630;8.886;2022-08-19T12:03:40;28.20;49.80
34406;DHT22;20658;45.630;8.886;2022-08-19T12:06:21;28.60;50.10
34406;DHT22;20658;45.630;8.886;2022-08-19T12:08:58;28.80;48.00
34406;DHT22;20658;45.630;8.886;2022-08-19T12:11:32;28.60;49.80
34406;DHT22;20658;45.630;8.886;2022-08-19T12:14:01;28.90;48.40
34406;DHT22;20658;45.630;8.886;2022-08-19T12:16:36;28.70;47.90
34406;DHT22;20658;45.630;8.886;2022-08-19T12:19:09;29.10;47.70
34406;DHT22;20658;45.630;8.886;2022-08-19T12:21:43;29.30;46.60
34406;DHT22;20658;45.630;8.886;2022-08-19T12:24:19;29.00;48.00
34406;DHT22;20658;45.630;8.886;2022-08-19T12:26:54;28.90;47.20
34406;DHT22;20658;45.630;8.886;2022-08-19T12:29:29;29.10;47.00
34406;DHT22;20658;45.630;8.886;2022-08-19T12:32:04;29.20;45.40
34406;DHT22;20658;45.630;8.886;2022-08-19T12:34:37;29.10;45.50
34406;DHT22;20658;45.630;8.886;2022-08-19T12:37:11;28.80;46.40
34406;DHT22;20658;45.630;8.886;2022-08-19T12:39:45;28.60;46.20
34406;DHT22;20658;45.630;8.886;2022-08-19T12:42:18;28.60;47.30
34406;DHT22;20658;45.630;8.886;2022-08-19T12:44:54;28.20;48.00
34406;DHT22;20658;45.630;8.886;2022-08-19T12:47:29;28.60;48.40
34406;DHT22;20658;45.630;8.886;2022-08-19T12:50:03;28.90;47.10
34406;DHT22;20658;45.630;8.886;2022-08-19T12:52:40;28.90;46.10
34406;DHT22;20658;45.630;8.886;2022-08-19T12:55:20;28.60;46.60
34406;DHT22;20658;45.630;8.886;2022-08-19T12:57:54;28.70;47.00
34406;DHT22;20658;45.630;8.886;2022-08-19T13:00:28;29.00;47.40
34406;DHT22;20658;45.630;8.886;2022-08-19T13:03:05;28.60;46.90
34406;DHT22;20658;45.630;8.886;2022-08-19T13:05:39;28.30;47.80
34406;DHT22;20658;45.630;8.886;2022-08-19T13:08:12;28.10;48.40
34406;DHT22;20658;45.630;8.886;2022-08-19T13:10:45;28.00;48.00
34406;DHT22;20658;45.630;8.886;2022-08-19T13:13:19;27.90;47.90
34406;DHT22;20658;45.630;8.886;2022-08-19T13:15:52;28.00;48.40
34406;DHT22;20658;45.630;8.886;2022-08-19T13:18:35;28.00;48.50
34406;DHT22;20658;45.630;8.886;2022-08-19T13:21:10;28.00;49.30
34406;DHT22;20658;45.630;8.886;2022-08-19T13:23:45;28.30;48.50
34406;DHT22;20658;45.630;8.886;2022-08-19T13:26:19;28.30;47.50
34406;DHT22;20658;45.630;8.886;2022-08-19T13:28:52;28.20;48.40
34406;DHT22;20658;45.630;8.886;2022-08-19T13:31:43;27.80;45.70
34406;DHT22;20658;45.630;8.886;2022-08-19T13:34:36;27.70;44.30
34406;DHT22;20658;45.630;8.886;2022-08-19T13:37:09;27.60;43.90
34406;DHT22;20658;45.630;8.886;2022-08-19T13:39:42;27.60;44.00
34406;DHT22;20658;45.630;8.886;2022-08-19T13:42:16;27.90;45.10
34406;DHT22;20658;45.630;8.886;2022-08-19T13:44:53;28.40;44.30
34406;DHT22;20658;45.630;8.886;2022-08-19T13:47:22;28.60;44.50
34406;DHT22;20658;45.630;8.886;2022-08-19T13:49:56;28.30;45.00
34406;DHT22;20658;45.630;8.886;2022-08-19T13:52:30;28.00;45.80
34406;DHT22;20658;45.630;8.886;2022-08-19T13:55:04;28.00;46.70
34406;DHT22;20658;45.630;8.886;2022-08-19T13:57:38;27.80;46.40
34406;DHT22;20658;45.630;8.886;2022-08-19T14:00:15;27.70;47.30
34406;DHT22;20658;45.630;8.886;2022-08-19T14:02:51;27.50;48.30
34406;DHT22;20658;45.630;8.886;2022-08-19T14:05:28;27.40;48.50
34406;DHT22;20658;45.630;8.886;2022-08-19T14:08:03;27.30;48.80
34406;DHT22;20658;45.630;8.886;2022-08-19T14:10:37;27.20;49.30
34406;DHT22;20658;45.630;8.886;2022-08-19T14:13:13;27.40;48.20
34406;DHT22;20658;45.630;8.886;2022-08-19T14:15:47;27.40;46.80
34406;DHT22;20658;45.630;8.886;2022-08-19T14:18:21;27.50;47.50
34406;DHT22;20658;45.630;8.886;2022-08-19T14:20:58;27.50;47.50
34406;DHT22;20658;45.630;8.886;2022-08-19T14:23:31;27.80;46.40
34406;DHT22;20658;45.630;8.886;2022-08-19T14:26:09;28.00;47.20
34406;DHT22;20658;45.630;8.886;2022-08-19T14:28:44;27.90;45.40
34406;DHT22;20658;45.630;8.886;2022-08-19T14:31:18;27.90;46.90
34406;DHT22;20658;45.630;8.886;2022-08-19T14:33:55;27.70;47.60
34406;DHT22;20658;45.630;8.886;2022-08-19T14:36:30;28.10;48.00
34406;DHT22;20658;45.630;8.886;2022-08-19T14:39:06;28.40;46.90
34406;DHT22;20658;45.630;8.886;2022-08-19T14:41:41;28.40;48.00
34406;DHT22;20658;45.630;8.886;2022-08-19T14:44:14;28.80;47.10
34406;DHT22;20658;45.630;8.886;2022-08-19T14:46:48;29.00;47.00
34406;DHT22;20658;45.630;8.886;2022-08-19T14:49:45;28.50;47.20
34406;DHT22;20658;45.630;8.886;2022-08-19T14:52:15;29.20;47.10
34406;DHT22;20658;45.630;8.886;2022-08-19T14:54:49;29.20;45.30
34406;DHT22;20658;45.630;8.886;2022-08-19T14:57:23;29.10;46.20
34406;DHT22;20658;45.630;8.886;2022-08-19T14:59:56;29.00;46.20
34406;DHT22;20658;45.630;8.886;2022-08-19T15:02:30;28.60;46.20
34406;DHT22;20658;45.630;8.886;2022-08-19T15:05:04;28.50;47.50
34406;DHT22;20658;45.630;8.886;2022-08-19T15:07:39;28.40;47.30
34406;DHT22;20658;45.630;8.886;2022-08-19T15:10:14;28.40;46.80
34406;DHT22;20658;45.630;8.886;2022-08-19T15:12:48;28.90;46.10
34406;DHT22;20658;45.630;8.886;2022-08-19T15:15:21;28.90;45.60
34406;DHT22;20658;45.630;8.886;2022-08-19T15:17:55;28.50;46.10
34406;DHT22;20658;45.630;8.886;2022-08-19T15:20:34;28.30;46.90
34406;DHT22;20658;45.630;8.886;2022-08-19T15:23:09;28.20;47.30
34406;DHT22;20658;45.630;8.886;2022-08-19T15:25:43;28.20;46.70
34406;DHT22;20658;45.630;8.886;2022-08-19T15:28:16;28.80;45.30
34406;DHT22;20658;45.630;8.886;2022-08-19T15:30:50;29.30;44.70
34406;DHT22;20658;45.630;8.886;2022-08-19T15:33:24;29.90;43.50
34406;DHT22;20658;45.630;8.886;2022-08-19T15:35:57;29.90;42.50
34406;DHT22;20658;45.630;8.886;2022-08-19T15:38:33;29.70;42.20
34406;DHT22;20658;45.630;8.886;2022-08-19T15:41:16;29.50;42.60
34406;DHT22;20658;45.630;8.886;2022-08-19T15:43:57;29.50;43.10
34406;DHT22;20658;45.630;8.886;2022-08-19T15:46:33;29.50;42.60
34406;DHT22;20658;45.630;8.886;2022-08-19T15:49:10;29.20;43.50
34406;DHT22;20658;45.630;8.886;2022-08-19T15:51:46;28.90;43.00
34406;DHT22;20658;45.630;8.886;2022-08-19T15:54:22;28.90;43.30
34406;DHT22;20658;45.630;8.886;2022-08-19T15:56:56;28.70;43.30
34406;DHT22;20658;45.630;8.886;2022-08-19T15:59:47;28.30;44.60
34406;DHT22;20658;45.630;8.886;2022-08-19T16:02:38;28.00;45.50
34406;DHT22;20658;45.630;8.886;2022-08-19T16:05:29;28.30;45.60
34406;DHT22;20658;45.630;8.886;2022-08-19T16:08:20;28.30;44.10
34406;DHT22;20658;45.630;8.886;2022-08-19T16:10:55;28.10;44.40
34406;DHT22;20658;45.630;8.886;2022-08-19T16:13:28;28.00;44.60
34406;DHT22;20658;45.630;8.886;2022-08-19T16:16:03;28.00;45.30
34406;DHT22;20658;45.630;8.886;2022-08-19T16:18:37;27.70;45.00
34406;DHT22;20658;45.630;8.886;2022-08-19T16:21:10;27.40;45.80
34406;DHT22;20658;45.630;8.886;2022-08-19T16:23:46;27.20;46.60